Latest Weather Observations for Bellambi

IDN60901

Issued at 10:31 pm EDT Thursday 23 February 2017 (issued every 10 minutes, with the page automatically refreshed every 10 minutes)

About weather observations | Map of Sydney area stations | Latest observations for Sydney area | Other Formats
Station Details ID: 068228 Name: BELLAMBI AWS Lat: -34.37 Lon: 150.93 Height: 10.0 m
Data from the previous 72 hours. | See also: Recent months at Bellambi
Date/Time
EDT
Temp
°C
App
Temp
°C
Dew
Point
°C
Rel
Hum
%
Delta-T
°C
Wind Press
QNH
hPa
Press
MSL
hPa
Rain since
9am
mm
Dir  Spd
km/h
Gust
km/h
Spd
kts
Gust
kts
23/10:00pm 21.2 21.5 17.0 77 2.6 N 11 13 6 7 - - -
23/09:30pm 21.2 20.9 17.4 79 2.3 N 15 20 8 11 - - -
23/09:00pm 21.3 20.1 17.1 77 2.6 NNE 19 20 10 11 - - 0.0
23/08:30pm 21.2 20.4 17.2 78 2.4 NNE 17 22 9 12 - - -
23/08:00pm 21.1 19.6 17.7 81 2.1 NE 22 24 12 13 - - -
23/07:30pm 21.6 18.6 17.8 79 2.4 NE 30 33 16 18 - - -
23/07:00pm 22.1 19.3 18.1 78 2.5 NE 30 33 16 18 - - -
23/06:30pm 22.3 19.1 18.1 77 2.6 NE 32 37 17 20 - - -
23/06:00pm 22.7 19.4 18.3 76 2.8 NE 33 39 18 21 - - -
23/05:30pm 23.0 19.8 18.1 74 3.1 NE 32 41 17 22 - - -
23/05:00pm 23.3 19.5 18.0 72 3.3 NE 35 41 19 22 - - -
23/04:30pm 23.6 21.9 18.0 71 3.5 NNE 24 35 13 19 - - -
23/04:00pm 23.7 22.3 17.9 70 3.6 NNE 22 30 12 16 - - -
23/03:30pm 23.8 20.3 17.8 69 3.7 NE 33 41 18 22 - - -
23/03:00pm 24.1 22.9 18.5 71 3.5 NNE 22 30 12 16 - - 0.0
23/02:30pm 23.4 22.3 17.8 71 3.5 NNE 20 28 11 15 - - -
23/02:00pm 24.1 23.5 18.5 71 3.5 NNE 19 28 10 15 - - -
23/01:30pm 22.6 21.4 17.5 73 3.2 NNE 20 28 11 15 - - -
23/01:00pm 23.1 22.8 18.2 74 3.1 NNE 17 22 9 12 - - -
23/12:30pm 22.6 21.8 17.9 75 2.9 N 19 22 10 12 - - -
23/12:00pm 23.3 23.1 18.4 74 3.1 N 17 20 9 11 - - -
23/11:30am 23.7 22.3 18.8 74 3.1 NE 24 28 13 15 - - -
23/11:00am 23.4 21.8 18.3 73 3.2 NE 24 28 13 15 - - -
23/10:30am 23.1 21.8 18.2 74 3.1 ENE 22 26 12 14 - - -
23/09:30am 22.4 21.7 17.3 73 3.1 NE 17 20 9 11 - - 0.0
23/09:00am 22.1 22.6 17.5 75 2.8 NE 11 15 6 8 - - 0.0
23/08:30am 21.7 20.6 16.4 72 3.2 N 17 20 9 11 - - 0.0
23/08:00am 21.1 20.5 16.7 76 2.7 NNE 15 19 8 10 - - 0.0
23/07:30am 20.9 19.9 16.7 77 2.5 NNE 17 22 9 12 - - 0.0
23/07:00am 20.5 19.2 16.7 79 2.3 N 19 24 10 13 - - 0.0
23/06:30am 20.2 19.7 16.8 81 2.1 N 15 17 8 9 - - 0.0
23/06:00am 20.2 19.7 17.0 82 1.9 N 15 19 8 10 - - 0.0
23/05:30am 20.1 19.6 16.9 82 1.9 NNE 15 20 8 11 - - 0.0
23/05:00am 20.4 19.0 16.6 79 2.3 NNE 19 24 10 13 - - 0.0
23/04:30am 20.6 19.1 16.8 79 2.3 N 20 26 11 14 - - 0.0
23/04:00am 20.4 19.5 16.8 80 2.2 NNE 17 22 9 12 - - 0.0
23/03:30am 20.9 19.5 16.9 78 2.4 N 20 24 11 13 - - 0.0
23/03:00am 20.9 19.7 17.1 79 2.3 NNE 19 22 10 12 - - 0.0
23/02:30am 21.2 20.1 17.2 78 2.4 N 19 22 10 12 - - 0.0
23/02:00am 20.9 21.0 17.5 81 2.1 N 13 17 7 9 - - 0.0
23/01:30am 20.3 20.3 17.1 82 1.9 NE 13 17 7 9 - - 0.0
23/01:00am 20.7 19.8 16.9 79 2.3 NE 17 20 9 11 - - 0.0
23/12:30am 20.6 20.1 16.8 79 2.3 NE 15 19 8 10 - - 0.0
23/12:00am 20.8 21.1 17.0 79 2.3 NE 11 15 6 8 - - 0.0
 
Date/Time
EDT
Temp
°C
App
Temp
°C
Dew
Point
°C
Rel
Hum
%
Delta-T
°C
Wind Press
QNH
hPa
Press
MSL
hPa
Rain since
9am
mm
Dir  Spd
km/h
Gust
km/h
Spd
kts
Gust
kts
22/11:30pm 21.7 20.9 17.1 75 2.8 N 17 20 9 11 - - 0.0
22/11:00pm 22.1 20.9 17.5 75 2.8 N 20 26 11 14 - - 0.0
22/10:30pm 22.2 20.7 17.6 75 2.8 N 22 28 12 15 - - 0.0
22/10:00pm 22.4 20.7 18.0 76 2.7 N 24 30 13 16 - - 0.0
22/09:30pm 22.4 20.6 17.8 75 2.9 N 24 30 13 16 - - 0.0
22/09:00pm 22.4 21.0 18.0 76 2.7 N 22 33 12 18 - - 0.0
22/08:30pm 22.3 21.4 18.1 77 2.6 N 20 24 11 13 - - 0.0
22/08:00pm 22.3 20.5 17.9 76 2.7 NNE 24 28 13 15 - - 0.0
22/07:30pm 22.4 20.6 17.8 75 2.9 NNE 24 32 13 17 - - 0.0
22/07:00pm 22.8 20.2 17.7 73 3.2 NNE 28 37 15 20 - - 0.0
22/06:30pm 23.2 20.2 17.7 71 3.4 NNE 30 37 16 20 - - 0.0
22/06:00pm 23.5 20.6 17.9 71 3.5 NE 30 37 16 20 - - 0.0
22/05:30pm 23.7 20.8 17.9 70 3.6 NE 30 37 16 20 - - 0.0
22/05:00pm 24.0 20.8 18.2 70 3.6 NE 32 35 17 19 - - 0.0
22/04:30pm 24.2 21.2 18.6 71 3.5 NE 32 37 17 20 - - 0.0
22/04:00pm 24.1 20.9 18.5 71 3.5 NE 33 41 18 22 - - 0.0
22/03:30pm 24.3 21.1 18.7 71 3.6 NE 33 39 18 21 - - 0.0
22/03:00pm 24.4 20.3 18.3 69 3.8 NE 37 43 20 23 - - 0.0
22/02:30pm 24.4 19.5 18.1 68 4.0 NE 41 46 22 25 - - 0.0
22/02:00pm 24.5 19.9 18.0 67 4.1 NE 39 46 21 25 - - 0.0
22/01:30pm 24.4 19.8 17.9 67 4.1 NE 39 44 21 24 - - 0.0
22/01:00pm 24.4 19.6 17.6 66 4.2 NE 39 46 21 25 - - 0.0
22/12:30pm 24.5 20.9 17.7 66 4.2 NE 33 41 18 22 - - 0.0
22/12:00pm 24.7 21.8 17.9 66 4.3 NE 30 37 16 20 - - 0.0
22/11:30am 24.9 23.0 17.6 64 4.6 NE 24 32 13 17 - - 0.0
22/11:00am 24.9 23.7 17.4 63 4.7 NE 20 26 11 14 - - 0.0
22/10:30am 25.1 24.2 17.8 64 4.6 NNE 19 26 10 14 - - 0.0
22/10:00am 24.2 21.8 16.5 62 4.7 N 24 32 13 17 - - 0.0
22/09:30am 24.1 20.7 15.9 60 5.0 N 28 35 15 19 - - 0.0
22/09:00am 23.8 21.1 15.6 60 4.9 N 24 37 13 20 - - 0.0
22/08:30am 23.0 20.5 16.1 65 4.2 N 24 32 13 17 - - 0.0
22/08:00am 22.5 19.2 16.1 67 3.9 N 28 33 15 18 - - 0.0
22/07:30am 22.0 19.9 16.1 69 3.6 N 22 28 12 15 - - 0.0
22/07:00am 21.4 19.1 15.7 70 3.4 N 22 26 12 14 - - 0.0
22/06:30am 21.4 19.6 15.9 71 3.3 N 20 24 11 13 - - 0.0
22/06:00am 21.3 19.7 16.0 72 3.2 N 19 24 10 13 - - 0.0
22/05:30am 21.3 19.7 16.0 72 3.2 N 19 20 10 11 - - 0.0
22/05:00am 21.4 19.5 15.7 70 3.4 N 20 28 11 15 - - 0.0
22/04:30am 21.4 20.1 15.9 71 3.3 N 17 20 9 11 - - 0.0
22/04:00am 21.4 19.4 15.5 69 3.5 N 20 24 11 13 - - 0.0
22/03:30am 21.5 20.2 15.8 70 3.4 N 17 20 9 11 - - 0.0
22/03:00am 21.7 19.9 15.5 68 3.7 N 19 24 10 13 - - 0.0
22/02:30am 21.7 19.7 15.5 68 3.7 NNW 20 24 11 13 - - 0.0
22/02:00am 21.7 19.6 15.3 67 3.8 NNW 20 24 11 13 - - 0.0
22/01:30am 21.9 19.8 15.3 66 3.9 N 20 26 11 14 - - 0.0
22/01:00am 22.0 19.5 15.1 65 4.1 NNW 22 26 12 14 - - 0.0
22/12:30am 21.7 20.5 15.1 66 3.9 N 15 19 8 10 - - 0.0
22/12:00am 22.0 21.0 15.6 67 3.8 N 15 22 8 12 - - 0.0
 
Date/Time
EDT
Temp
°C
App
Temp
°C
Dew
Point
°C
Rel
Hum
%
Delta-T
°C
Wind Press
QNH
hPa
Press
MSL
hPa
Rain since
9am
mm
Dir  Spd
km/h
Gust
km/h
Spd
kts
Gust
kts
21/11:30pm 22.2 21.4 16.2 69 3.6 N 15 19 8 10 - - 0.0
21/11:00pm 22.5 21.0 16.3 68 3.8 N 19 22 10 12 - - 0.0
21/10:30pm 22.7 21.8 17.8 74 3.0 N 19 24 10 13 - - 0.0
21/10:00pm 22.5 23.8 18.5 78 2.5 N 9 15 5 8 - - 0.0
21/09:30pm 22.5 21.3 17.6 74 3.0 NE 20 24 11 13 - - 0.0
21/09:00pm 22.5 20.9 17.4 73 3.1 ENE 22 24 12 13 - - 0.0
21/08:30pm 22.4 21.2 17.5 74 3.0 ENE 20 24 11 13 - - 0.0
21/08:00pm 22.5 21.2 17.2 72 3.3 ENE 20 22 11 12 - - 0.0
21/07:30pm 22.7 21.4 17.2 71 3.4 ENE 20 26 11 14 - - 0.0
21/07:00pm 22.9 21.9 16.7 68 3.8 ENE 17 20 9 11 - - 0.0
21/06:30pm 23.3 23.6 17.1 68 3.8 E 11 13 6 7 - - 0.0
21/06:00pm 23.7 23.2 16.0 62 4.7 ESE 13 15 7 8 - - 0.0
21/05:30pm 24.3 23.6 15.5 58 5.3 E 13 15 7 8 - - 0.0
21/05:00pm 24.7 24.3 15.3 56 5.7 ENE 11 13 6 7 - - 0.0
21/04:30pm 24.6 24.3 15.5 57 5.5 E 11 13 6 7 - - 0.0
21/04:00pm 24.5 24.4 14.9 55 5.7 E 9 11 5 6 - - 0.0
21/03:30pm 24.4 24.5 14.5 54 5.9 ESE 7 9 4 5 - - 0.0
21/03:00pm 24.4 24.2 14.8 55 5.7 E 9 13 5 7 - - 0.0
21/02:30pm 24.4 23.4 14.5 54 5.9 E 13 15 7 8 - - 0.0
21/02:00pm 24.5 23.5 13.4 50 6.5 E 11 13 6 7 - - 0.0
21/01:30pm 24.4 23.8 15.6 58 5.3 E 13 15 7 8 - - 0.0
21/01:00pm 24.5 23.5 15.7 58 5.3 SE 15 17 8 9 - - 0.0
21/12:30pm 23.6 22.1 15.4 60 4.9 SE 17 19 9 10 - - 0.0
21/12:00pm 23.7 22.1 16.0 62 4.7 SE 19 20 10 11 - - 0.0
21/11:30am 23.7 22.2 16.2 63 4.6 SE 19 22 10 12 - - 0.0
21/11:00am 22.9 21.3 15.0 61 4.7 SSE 17 20 9 11 - - 0.0
21/10:30am 22.9 21.3 13.9 57 5.3 SSE 15 19 8 10 - - 0.0
21/10:00am 22.6 21.0 13.9 58 5.1 S 15 19 8 10 - - 0.0
21/09:30am 22.1 20.9 12.9 56 5.3 S 11 15 6 8 - - 0.0
21/09:00am 21.6 22.1 11.6 53 5.6 CALM 0 4 0 2 - - 0.0
21/08:30am 20.7 19.6 10.5 52 5.5 SSW 7 9 4 5 - - 0.0
21/08:00am 19.7 20.2 11.5 59 4.5 CALM 0 0 0 0 - - 0.0
21/07:30am 17.5 17.5 9.9 61 4.0 CALM 0 0 0 0 - - 0.0
21/07:00am 16.0 14.0 6.4 53 4.7 WNW 6 9 3 5 - - 0.0
21/06:30am 16.0 13.6 5.3 49 5.1 NW 7 11 4 6 - - 0.0
21/06:00am 16.2 13.4 5.2 48 5.2 NW 9 11 5 6 - - 0.0
21/05:30am 17.1 16.1 5.7 47 5.5 CALM 0 0 0 0 - - 0.0
21/05:00am 16.9 14.2 3.9 42 6.1 WSW 7 9 4 5 - - 0.0
21/04:30am 17.4 14.3 3.7 40 6.4 WNW 9 11 5 6 - - 0.0
21/04:00am 17.3 14.7 6.2 48 5.4 NW 9 13 5 7 - - 0.0
21/03:30am 17.9 14.3 3.0 37 6.9 WSW 11 15 6 8 - - 0.0
21/03:00am 18.4 14.1 3.5 37 7.0 WSW 15 20 8 11 - - 0.0
21/02:30am 18.6 13.9 2.9 35 7.3 W 17 24 9 13 - - 0.0
21/02:00am 18.6 13.9 2.9 35 7.3 W 17 22 9 12 - - 0.0
21/01:30am 18.6 13.4 2.4 34 7.4 WSW 19 24 10 13 - - 0.0
21/01:00am 18.0 13.6 4.6 41 6.4 NW 17 22 9 12 - - 0.0
21/12:30am 18.7 13.1 3.3 36 7.2 WNW 22 28 12 15 - - 0.0
21/12:00am 18.6 15.2 2.0 33 7.5 W 9 13 5 7 - - 0.0
 
Date/Time
EDT
Temp
°C
App
Temp
°C
Dew
Point
°C
Rel
Hum
%
Delta-T
°C
Wind Press
QNH
hPa
Press
MSL
hPa
Rain since
9am
mm
Dir  Spd
km/h
Gust
km/h
Spd
kts
Gust
kts
20/11:30pm 18.8 14.7 2.2 33 7.6 W 13 15 7 8 - - 0.0
20/11:00pm 19.7 17.0 2.6 32 7.9 WSW 6 13 3 7 - - 0.0

Latest Capital City Observations: Canberra | Sydney | Melbourne | Brisbane | Adelaide | Perth | Hobart | Darwin

Other Formats:

Comma delimited format used in spreadsheet applications
http://www.bom.gov.au/fwo/IDN60901/IDN60901.94749.axf

JavaScript Object Notation format (JSON) in row-major order
http://www.bom.gov.au/fwo/IDN60901/IDN60901.94749.json